Melbourne, FL (32904)

4:22 PM EDT on August 04, 2015 (GMT -0400)
Crystal Lakes West | | Change Station
CLOSE
Current Station
Personal Weather Station
Location: West Melbourne, FL
Elevation: 28 ft
Nearby Weather Stations

Elev 28 ft 28.06 °N, 80.68 °W | Updated 10 seconds ago

Mostly Cloudy
Mostly Cloudy
87.4 °F
Feels Like 94 °F
N
9.8
Wind Variable Wind from NE
Gusts 11.4 mph

Today
High -- | Low -- °F
--% Chance of Precip.
Yesterday
High -- | Low -- °F
Precip. -- in
6:46 AM 8:10 PM
Waning Gibbous, 75% visible
Pressure 30.04 in
Visibility 10.0 miles
Clouds Mostly Cloudy 6000 ft
Heat Index 94 °F
Dew Point 72 °F
Humidity 60%
Rainfall 0.00 in
Snow Depth Not available.
UV 6 out of 12
Pollen 3.90 out of 12
Air Quality Not available.
Flu Activity Not available.
METAR KMLB 041953Z 11010KT 10SM BKN060 31/21 A3004 RMK AO2 SLP172 T03060211

More Conditions Fewer Conditions

Pressure 30.04 in
Visibility 10.0 miles
Clouds Mostly Cloudy 6000 ft
Heat Index 94 °F
Dew Point 72 °F
Humidity 60%
Rainfall 0.00 in
Snow Depth Not available.
UV 6 out of 12
Pollen 3.90 out of 12
Air Quality Not available.
Flu Activity Not available.
METAR KMLB 041953Z 11010KT 10SM BKN060 31/21 A3004 RMK AO2 SLP172 T03060211

More Conditions Fewer Conditions

10-Day Weather Forecast

×

Almanac

Astronomy

Aug. 04, 2015 Rise Set
Actual Time
Civil Twilight
Nautical Twilight
Astronomical Twilight
Moon
Length of Visible Light
Length of Day
Tomorrow will be .
, % of the Moon is Illuminated

Today's Extremes

State Highs State Lows

Community

WunderPhotos

Upload Photos

1,843,963 photos uploaded!

WunderBlogs® & News

Nearby

Air Quality

  Air Quality AQ Index Pollutant
Not available.

Snow Depth

Station Depth Elevation

Earthquake Activity

City Distance Mag. Time & Date
Minimum magnitude displayed is 2.5.

Coastal Water Temperatures

Place Temperature

Stations

Nearby Weather Stations

Station Location Temp. Windchill Dew Point Humidity Wind Precip. Elev Updated Type